Hauptseite
METAR-TAF:

METAR-TAF

Flughäfen :

Flugfeld Wideawake

Georgetown, Ascension

Breite: 07-58S, Länge: 014-24W, Höhe: 86 m

METAR: fehlend

Zeit: 08:53 (08:53 UTC)

Prognose

Neuester Wetterbericht von vor 1 Stunde und 23 Minuten, um 07:30 UTC
Gültige Prognose vom 17 um 09 UTC bis 18 um 03 UTC
Wind 12 kt aus Südost
Sichtweite 10 km oder mehr
Leicht bewölkt in der Höhe von 1800 ft
Aufgelockert bewölkt in der Höhe von 4500 ft
Wahrscheinlichkeit 40% :
Zeitweise
vom 17 um 09 UTC bis 18 um 03 UTC
Aufgelockert bewölkt in der Höhe von 1800 ft

TAF: FHAW 170730Z 1709/1803 13012KT 9999 FEW018 SCT045 PROB40 TEMPO 1709/1803 SCT018

Wetterbeobachtungen und Prognosen von mehr als 4000 Flughäfen (METAR und TAF Bericht).

Die verfügbaren Stationen werden durch gelbe und rote Markierungen auf der Karte dargestellt.

Führen Sie die Maus auf sie, um den Namen der Station zu sehen.

Darauf klicken, um die Beobachtung von Wetterbeobachtungen und Prognosen zu sehen.

Um die Karte zu ändern : klicken Sie auf den grünen Tasten mit einem schwarzen Kreuz Zum Vergrößern, auf den grünen Button mit einem Gedankenstrich zu verkleinern, oder auf die grünen Pfeile für benachbarte Karten.


METAR-TAF: